Time;durP1;ratioP1;P1;durP2;ratioP2;P2;SDS_P1;SDS_P2;PMS_P1;PMS_P2;Temp;Humidity;BMP_temperature;BMP_pressure;BME280_temperature;BME280_humidity;BME280_pressure;Samples;Min_cycle;Max_cycle;Signal;HPM_P1;HPM_P2
2021/06/02 00:01:54;;;;;;;11.25;7.15;;;14.90;78.50;;;;;;5056883;28;20040;-76
2021/06/02 00:04:22;;;;;;;10.18;6.78;;;14.90;78.50;;;;;;5056508;28;20043;-76
2021/06/02 00:06:50;;;;;;;8.68;7.10;;;14.90;78.40;;;;;;5058456;28;20075;-75
2021/06/02 00:09:17;;;;;;;9.43;7.72;;;14.80;78.30;;;;;;5041672;28;20044;-75
2021/06/02 00:11:43;;;;;;;8.55;6.60;;;14.80;78.30;;;;;;5061313;28;20028;-75
2021/06/02 00:14:10;;;;;;;10.80;6.97;;;14.70;78.30;;;;;;5058283;28;20036;-75
2021/06/02 00:16:39;;;;;;;9.77;6.90;;;14.70;78.50;;;;;;5061638;28;20056;-75
2021/06/02 00:19:05;;;;;;;9.07;6.70;;;14.60;78.50;;;;;;5055047;28;20686;-75
2021/06/02 00:21:33;;;;;;;8.63;6.55;;;14.50;78.50;;;;;;5058331;28;20048;-75
2021/06/02 00:24:02;;;;;;;10.13;6.63;;;14.50;78.70;;;;;;5055830;28;20057;-74
2021/06/02 00:26:33;;;;;;;10.83;6.33;;;14.40;78.90;;;;;;5059370;28;20086;-79
2021/06/02 00:29:04;;;;;;;9.98;6.60;;;14.40;79.00;;;;;;5059735;28;20127;-78
2021/06/02 00:31:32;;;;;;;9.77;6.28;;;14.30;78.70;;;;;;5052423;28;20090;-78
2021/06/02 00:34:06;;;;;;;16.17;6.82;;;14.30;78.60;;;;;;5039495;28;20056;-79
2021/06/02 00:36:32;;;;;;;10.30;7.28;;;14.30;78.60;;;;;;5057173;28;20055;-78
2021/06/02 00:38:59;;;;;;;8.63;6.72;;;14.20;78.80;;;;;;5054391;28;20043;-78
2021/06/02 00:41:25;;;;;;;9.55;7.35;;;14.20;78.80;;;;;;5060905;28;20040;-78
2021/06/02 00:43:51;;;;;;;8.00;6.47;;;14.10;78.90;;;;;;5060411;28;20095;-78
2021/06/02 00:46:20;;;;;;;8.75;6.95;;;14.00;79.00;;;;;;5060342;28;20036;-75
2021/06/02 00:48:46;;;;;;;10.52;7.30;;;14.00;79.10;;;;;;5057735;28;20696;-76
2021/06/02 00:51:12;;;;;;;12.02;7.40;;;14.00;79.40;;;;;;5040616;28;20098;-75
2021/06/02 00:53:38;;;;;;;8.25;5.88;;;13.90;79.60;;;;;;5054391;28;20040;-75
2021/06/02 00:56:06;;;;;;;8.68;6.38;;;13.90;80.10;;;;;;5055562;28;20051;-75
2021/06/02 00:58:39;;;;;;;9.10;6.55;;;13.80;80.40;;;;;;5057750;28;20162;-75
2021/06/02 01:01:06;;;;;;;9.52;7.20;;;13.70;80.60;;;;;;5058254;28;20093;-75
2021/06/02 01:03:35;;;;;;;9.70;6.68;;;13.70;80.80;;;;;;5059055;28;20032;-75
2021/06/02 01:06:01;;;;;;;8.75;6.72;;;13.70;81.20;;;;;;5058630;28;20033;-75
2021/06/02 01:08:32;;;;;;;7.75;5.72;;;13.70;81.10;;;;;;5058602;28;20037;-75
2021/06/02 01:11:02;;;;;;;9.63;7.63;;;13.70;81.10;;;;;;5061124;28;20040;-75
2021/06/02 01:13:34;;;;;;;8.60;6.53;;;13.60;81.10;;;;;;5041323;28;20036;-75
2021/06/02 01:16:00;;;;;;;8.50;6.82;;;13.60;81.10;;;;;;5062061;28;20078;-75
2021/06/02 01:18:27;;;;;;;9.88;6.05;;;13.60;81.10;;;;;;5060690;28;20055;-74
2021/06/02 01:21:00;;;;;;;8.90;5.63;;;13.50;80.90;;;;;;5054137;28;20531;-75
2021/06/02 01:23:26;;;;;;;10.75;6.32;;;13.50;80.80;;;;;;5057333;28;20075;-75
2021/06/02 01:25:52;;;;;;;7.85;5.78;;;13.40;80.60;;;;;;5060475;28;20483;-75
2021/06/02 01:28:18;;;;;;;7.28;5.30;;;13.40;80.60;;;;;;5073661;28;20491;-75
2021/06/02 01:30:43;;;;;;;7.03;5.57;;;13.40;80.60;;;;;;5043235;28;20056;-75
2021/06/02 01:33:21;;;;;;;7.05;5.10;;;13.30;80.50;;;;;;5049001;28;20563;-75
2021/06/02 01:35:58;;;;;;;7.78;5.38;;;13.20;80.60;;;;;;5073112;28;20040;-75
2021/06/02 01:38:41;;;;;;;9.48;5.28;;;13.20;80.90;;;;;;5059714;28;20036;-75
2021/06/02 01:41:28;;;;;;;5.38;4.38;;;13.20;80.90;;;;;;5059985;28;20041;-75
2021/06/02 01:44:11;;;;;;;7.10;5.10;;;13.10;81.10;;;;;;5059820;28;20049;-75
2021/06/02 01:47:02;;;;;;;8.32;5.20;;;13.10;81.20;;;;;;5056721;28;20033;-75
2021/06/02 01:50:09;;;;;;;7.35;5.05;;;13.10;80.80;;;;;;5056736;28;20114;-75
2021/06/02 01:53:02;;;;;;;6.82;4.90;;;13.10;80.60;;;;;;5074636;28;20491;-74
2021/06/02 01:56:06;;;;;;;6.03;5.00;;;13.10;80.60;;;;;;5061298;28;20036;-75
2021/06/02 01:59:04;;;;;;;6.40;4.22;;;13.00;80.10;;;;;;5052877;28;20037;-74
2021/06/02 02:01:44;;;;;;;7.28;5.07;;;13.00;80.90;;;;;;5051826;28;20131;-75
2021/06/02 02:04:48;;;;;;;8.10;4.93;;;12.90;81.40;;;;;;5089350;28;20045;-75
2021/06/02 02:07:36;;;;;;;7.30;4.47;;;12.90;81.60;;;;;;5057403;28;20115;-74
2021/06/02 02:10:08;;;;;;;7.53;5.00;;;12.80;81.30;;;;;;5054076;28;20043;-75
2021/06/02 02:12:56;;;;;;;6.22;4.28;;;12.80;81.30;;;;;;5057488;28;20115;-74
2021/06/02 02:15:40;;;;;;;6.63;4.78;;;12.80;81.00;;;;;;5057247;28;20040;-75
2021/06/02 02:18:46;;;;;;;6.47;4.47;;;12.80;80.60;;;;;;5053455;28;20049;-75
2021/06/02 02:21:18;;;;;;;7.18;4.95;;;12.80;80.30;;;;;;5052154;28;20049;-74
2021/06/02 02:24:11;;;;;;;7.22;4.60;;;12.80;80.50;;;;;;5064543;28;20040;-75
2021/06/02 02:27:16;;;;;;;6.50;4.78;;;12.70;80.80;;;;;;5080423;28;20501;-75
2021/06/02 02:29:55;;;;;;;6.60;4.88;;;12.70;80.90;;;;;;5061505;28;20067;-74
2021/06/02 02:32:30;;;;;;;7.13;4.75;;;12.70;81.10;;;;;;5059789;28;20040;-74
2021/06/02 02:35:30;;;;;;;7.30;5.07;;;12.60;81.30;;;;;;5062320;28;20060;-75
2021/06/02 02:38:30;;;;;;;8.25;5.25;;;12.60;81.60;;;;;;5060564;28;20035;-75
2021/06/02 02:41:15;;;;;;;9.07;5.65;;;12.50;82.00;;;;;;5060201;28;20407;-75
2021/06/02 02:43:56;;;;;;;8.10;5.60;;;12.40;82.20;;;;;;5063240;28;20445;-75
2021/06/02 02:46:47;;;;;;;8.63;6.25;;;12.30;82.30;;;;;;5062665;28;20676;-75
2021/06/02 02:49:20;;;;;;;9.15;5.35;;;12.30;82.80;;;;;;5053924;28;20056;-75
2021/06/02 02:52:01;;;;;;;8.27;6.40;;;12.20;83.10;;;;;;5057015;28;20037;-75
2021/06/02 02:55:02;;;;;;;7.28;5.82;;;12.10;83.50;;;;;;5059316;28;20501;-74
2021/06/02 02:57:51;;;;;;;7.95;6.03;;;12.10;83.80;;;;;;5055145;28;20059;-75
2021/06/02 03:00:23;;;;;;;13.45;6.07;;;12.00;84.40;;;;;;5064331;28;20033;-75
2021/06/02 03:03:09;;;;;;;9.18;6.72;;;12.00;84.40;;;;;;5063171;28;20037;-74
2021/06/02 03:05:45;;;;;;;9.73;6.20;;;12.00;85.10;;;;;;5065677;28;20041;-75
2021/06/02 03:08:51;;;;;;;9.45;6.53;;;12.00;84.80;;;;;;5062437;28;20106;-75
2021/06/02 03:11:38;;;;;;;9.23;5.80;;;11.90;85.10;;;;;;5059869;28;20040;-75
2021/06/02 03:14:19;;;;;;;12.93;7.03;;;11.90;85.20;;;;;;5061387;28;20052;-74
2021/06/02 03:17:06;;;;;;;8.93;6.80;;;11.90;85.50;;;;;;5061079;28;20514;-75
2021/06/02 03:19:55;;;;;;;9.93;6.88;;;11.80;85.80;;;;;;5062483;28;20041;-75
2021/06/02 03:22:29;;;;;;;9.85;6.85;;;11.80;86.00;;;;;;5037309;28;20048;-74
2021/06/02 03:25:30;;;;;;;9.95;7.30;;;11.80;86.10;;;;;;5062599;28;20039;-73
2021/06/02 03:28:03;;;;;;;11.68;7.50;;;11.80;86.40;;;;;;5064807;28;20045;-74
2021/06/02 03:30:34;;;;;;;9.15;7.00;;;11.80;86.30;;;;;;5077392;28;20075;-74
2021/06/02 03:33:17;;;;;;;11.50;7.25;;;11.80;86.60;;;;;;5062191;28;20041;-75
2021/06/02 03:36:08;;;;;;;11.23;7.68;;;11.80;87.20;;;;;;5065530;28;20055;-75
2021/06/02 03:38:43;;;;;;;;;;;11.80;87.20;;;;;;5063353;28;20093;-75
2021/06/02 03:41:29;;;;;;;11.38;6.78;;;11.80;87.50;;;;;;5061382;28;19921;-75
2021/06/02 03:44:20;;;;;;;11.38;7.15;;;11.70;87.00;;;;;;5065055;28;20044;-75
2021/06/02 03:46:48;;;;;;;10.07;6.93;;;11.80;87.70;;;;;;5061123;28;20032;-74
2021/06/02 03:49:22;;;;;;;10.13;7.38;;;11.80;87.50;;;;;;5063437;28;20056;-74
2021/06/02 03:52:05;;;;;;;11.30;7.43;;;11.80;87.80;;;;;;5063851;28;20118;-74
2021/06/02 03:54:41;;;;;;;11.07;8.05;;;11.80;88.20;;;;;;5060768;28;20796;-75
2021/06/02 03:57:15;;;;;;;11.15;7.63;;;11.90;88.30;;;;;;5063042;28;20047;-75
2021/06/02 04:00:14;;;;;;;11.80;8.50;;;11.90;88.50;;;;;;5062995;28;20487;-75
2021/06/02 04:02:43;;;;;;;12.90;8.27;;;12.00;88.50;;;;;;5053755;28;20048;-75
2021/06/02 04:05:36;;;;;;;14.35;8.90;;;12.00;88.60;;;;;;5062730;28;20578;-75
2021/06/02 04:08:29;;;;;;;13.32;8.63;;;12.10;88.80;;;;;;5061372;28;20495;-75
2021/06/02 04:11:20;;;;;;;12.02;8.82;;;12.10;89.20;;;;;;5060299;28;20048;-75
2021/06/02 04:13:55;;;;;;;12.88;9.10;;;12.10;89.60;;;;;;5059371;28;20043;-77
2021/06/02 04:16:33;;;;;;;13.52;9.43;;;12.20;89.80;;;;;;5062445;28;20132;-77
2021/06/02 04:19:13;;;;;;;12.75;9.13;;;12.40;89.90;;;;;;5061998;28;20491;-77
2021/06/02 04:21:43;;;;;;;13.07;9.40;;;12.40;89.70;;;;;;5060054;28;20033;-77
2021/06/02 04:24:16;;;;;;;;;;;12.60;89.70;;;;;;5061334;28;20033;-77
2021/06/02 04:26:43;;;;;;;13.60;8.52;;;12.70;89.50;;;;;;5065712;28;20018;-77
2021/06/02 04:29:14;;;;;;;11.38;8.68;;;12.70;89.20;;;;;;5059663;28;20124;-77
2021/06/02 04:32:01;;;;;;;12.00;8.30;;;12.90;89.10;;;;;;5065200;28;20040;-78
2021/06/02 04:34:34;;;;;;;13.38;8.63;;;13.10;88.90;;;;;;5062859;28;20531;-76
2021/06/02 04:37:02;;;;;;;13.60;9.02;;;13.10;88.60;;;;;;5064691;28;20474;-76
2021/06/02 04:39:32;;;;;;;12.60;8.82;;;13.20;88.30;;;;;;5076006;28;20116;-76
2021/06/02 04:42:01;;;;;;;11.40;8.15;;;13.40;88.20;;;;;;5061915;28;20040;-76
2021/06/02 04:44:32;;;;;;;12.30;8.10;;;13.50;87.90;;;;;;5061148;28;20037;-76
2021/06/02 04:47:02;;;;;;;9.15;7.57;;;13.70;87.80;;;;;;5062215;28;20042;-77
2021/06/02 04:49:52;;;;;;;11.82;8.05;;;13.70;87.60;;;;;;5058845;28;20055;-77
2021/06/02 04:52:23;;;;;;;11.23;8.35;;;13.90;87.40;;;;;;5046220;28;20052;-77
2021/06/02 04:54:51;;;;;;;11.38;8.10;;;14.00;87.10;;;;;;5071802;28;20047;-77
2021/06/02 04:57:36;;;;;;;9.55;7.60;;;14.20;86.70;;;;;;5061691;28;20419;-78
2021/06/02 05:00:25;;;;;;;12.60;8.00;;;14.30;86.90;;;;;;5055985;28;20036;-77
2021/06/02 05:03:32;;;;;;;10.52;7.53;;;14.50;86.30;;;;;;5056486;28;20107;-75
2021/06/02 05:06:39;;;;;;;11.90;7.45;;;14.70;85.40;;;;;;5062792;28;20044;-75
2021/06/02 05:09:23;;;;;;;11.43;7.18;;;14.80;84.90;;;;;;5020450;28;20084;-75
2021/06/02 05:12:11;;;;;;;11.38;7.97;;;15.00;83.90;;;;;;5055212;28;20138;-75
2021/06/02 05:14:49;;;;;;;8.75;7.65;;;15.20;83.00;;;;;;5060299;28;20089;-74
2021/06/02 05:17:34;;;;;;;11.38;7.35;;;15.30;82.60;;;;;;5056719;28;20896;-75
2021/06/02 05:20:21;;;;;;;10.80;7.57;;;15.40;81.40;;;;;;5059788;28;20052;-75
2021/06/02 05:23:25;;;;;;;9.57;7.10;;;15.40;80.80;;;;;;5058625;28;20510;-75
2021/06/02 05:26:29;;;;;;;10.18;7.40;;;15.50;80.70;;;;;;5055780;28;20048;-77
2021/06/02 05:29:45;;;;;;;11.55;7.82;;;15.60;80.40;;;;;;5055268;28;20040;-78
2021/06/02 05:32:45;;;;;;;11.63;7.30;;;15.70;79.80;;;;;;5018609;28;20116;-77
2021/06/02 05:35:14;;;;;;;9.95;7.65;;;15.70;78.60;;;;;;5000645;28;20045;-77
2021/06/02 05:38:00;;;;;;;8.80;7.25;;;15.80;78.00;;;;;;5051293;28;20055;-77
2021/06/02 05:41:07;;;;;;;11.63;7.45;;;15.80;77.70;;;;;;5061923;28;20795;-77
2021/06/02 05:43:51;;;;;;;9.85;6.93;;;15.90;77.20;;;;;;5056483;28;20048;-77
2021/06/02 05:46:35;;;;;;;14.18;7.68;;;15.90;77.90;;;;;;5055424;28;20044;-77
2021/06/02 05:49:39;;;;;;;9.60;7.53;;;15.90;77.10;;;;;;5057442;28;20527;-77
2021/06/02 05:52:30;;;;;;;11.23;6.75;;;15.90;76.70;;;;;;5062567;28;20033;-74
2021/06/02 05:55:01;;;;;;;9.95;7.13;;;16.00;76.90;;;;;;5055261;28;20067;-74
2021/06/02 05:57:58;;;;;;;9.82;7.10;;;16.10;76.90;;;;;;5064668;28;20039;-74
2021/06/02 06:01:02;;;;;;;10.00;7.00;;;16.10;77.00;;;;;;5081079;28;20044;-74
2021/06/02 06:04:03;;;;;;;11.35;7.28;;;16.20;76.70;;;;;;5062492;28;20036;-74
2021/06/02 06:06:48;;;;;;;10.77;6.95;;;16.20;75.80;;;;;;5063875;28;20048;-74
2021/06/02 06:09:42;;;;;;;11.05;7.30;;;16.20;75.40;;;;;;5078936;28;20052;-74
2021/06/02 06:12:59;;;;;;;9.90;6.82;;;16.30;75.50;;;;;;5062990;28;20494;-76
2021/06/02 06:16:01;;;;;;;10.00;7.38;;;16.30;75.10;;;;;;5062845;28;20040;-77
2021/06/02 06:18:52;;;;;;;10.02;6.95;;;16.20;74.00;;;;;;5066317;28;20127;-77
2021/06/02 06:21:45;;;;;;;15.32;8.23;;;16.20;73.70;;;;;;5062434;28;20041;-74
2021/06/02 06:24:22;;;;;;;9.73;6.47;;;16.20;74.30;;;;;;5048579;28;20052;-74
2021/06/02 06:27:07;;;;;;;9.73;6.30;;;16.20;74.30;;;;;;5064619;28;20128;-74
2021/06/02 06:29:45;;;;;;;11.13;6.93;;;16.10;74.00;;;;;;5068328;28;20037;-74
2021/06/02 06:32:11;;;;;;;9.68;6.15;;;16.10;74.40;;;;;;5066995;28;20557;-74
2021/06/02 06:34:42;;;;;;;9.65;6.35;;;16.20;74.10;;;;;;5059721;28;20435;-75
2021/06/02 06:37:12;;;;;;;9.20;7.00;;;16.30;73.20;;;;;;5063870;28;20436;-74
2021/06/02 06:39:46;;;;;;;10.15;6.88;;;16.30;72.50;;;;;;5060297;28;20033;-74
2021/06/02 06:42:16;;;;;;;8.88;6.28;;;16.40;72.70;;;;;;5063917;28;20037;-74
2021/06/02 06:44:45;;;;;;;8.95;6.25;;;16.40;74.00;;;;;;5061816;28;20483;-74
2021/06/02 06:47:14;;;;;;;8.50;6.35;;;16.50;72.70;;;;;;5057197;28;20037;-74
2021/06/02 06:49:44;;;;;;;9.10;6.40;;;16.60;70.90;;;;;;5053605;28;20572;-74
2021/06/02 06:52:10;;;;;;;10.07;6.28;;;16.70;70.90;;;;;;5066128;28;20037;-73
2021/06/02 06:54:38;;;;;;;8.82;7.07;;;16.70;71.50;;;;;;5059975;28;20044;-74
2021/06/02 06:57:05;;;;;;;9.70;7.57;;;16.70;72.30;;;;;;5044414;28;20090;-74
2021/06/02 06:59:35;;;;;;;10.40;6.97;;;16.70;72.50;;;;;;5072726;28;20055;-74
2021/06/02 07:02:02;;;;;;;9.13;6.63;;;16.70;71.80;;;;;;5055689;28;20060;-74
2021/06/02 07:04:32;;;;;;;9.07;6.80;;;16.70;71.90;;;;;;5059857;28;20452;-74
2021/06/02 07:06:58;;;;;;;;;;;16.70;72.80;;;;;;5058580;28;20060;-74
2021/06/02 07:09:25;;;;;;;9.82;7.03;;;16.70;72.40;;;;;;5063309;28;20383;-74
2021/06/02 07:11:55;;;;;;;10.07;7.47;;;16.60;72.80;;;;;;5095368;27;20449;-74
2021/06/02 07:14:28;;;;;;;9.68;7.63;;;16.60;73.70;;;;;;5059280;28;20043;-75
2021/06/02 07:16:57;;;;;;;10.40;7.20;;;16.60;73.30;;;;;;5061628;28;20037;-74
2021/06/02 07:19:32;;;;;;;10.45;7.55;;;16.70;73.90;;;;;;5056425;28;20123;-74
2021/06/02 07:22:01;;;;;;;10.05;7.47;;;16.70;72.60;;;;;;5054499;28;20056;-73
2021/06/02 07:24:31;;;;;;;10.02;7.63;;;16.80;73.10;;;;;;5058172;28;20791;-73
2021/06/02 07:26:59;;;;;;;11.18;7.78;;;16.90;72.10;;;;;;5062203;28;20036;-74
2021/06/02 07:29:26;;;;;;;11.35;7.47;;;17.00;72.20;;;;;;5063008;28;20044;-73
2021/06/02 07:31:53;;;;;;;9.90;7.03;;;17.00;71.90;;;;;;5063744;28;20124;-73
2021/06/02 07:34:21;;;;;;;10.20;7.18;;;17.10;72.40;;;;;;5054783;28;20048;-74
2021/06/02 07:36:51;;;;;;;10.68;6.75;;;17.10;72.40;;;;;;5056328;28;20036;-74
2021/06/02 07:39:17;;;;;;;11.05;6.95;;;17.20;71.00;;;;;;5057726;28;20064;-74
2021/06/02 07:41:43;;;;;;;8.07;6.05;;;17.40;70.90;;;;;;5070332;28;20037;-74
2021/06/02 07:44:08;;;;;;;10.65;6.88;;;17.70;69.00;;;;;;5044510;28;20067;-75
2021/06/02 07:46:35;;;;;;;9.50;6.60;;;17.90;68.20;;;;;;5077177;28;20033;-76
2021/06/02 07:49:03;;;;;;;9.45;6.55;;;18.00;67.50;;;;;;5047474;28;20094;-74
2021/06/02 07:51:29;;;;;;;9.10;6.30;;;18.20;68.00;;;;;;5062476;28;20049;-74
2021/06/02 07:53:54;;;;;;;7.75;5.53;;;18.40;66.30;;;;;;5074846;28;20067;-75
2021/06/02 07:56:20;;;;;;;9.25;5.57;;;18.60;64.10;;;;;;5087842;28;20044;-74
2021/06/02 07:58:46;;;;;;;7.25;5.60;;;18.60;62.50;;;;;;5066446;28;20099;-74
2021/06/02 08:01:12;;;;;;;8.13;6.15;;;18.60;62.60;;;;;;5065727;28;20489;-75
2021/06/02 08:03:38;;;;;;;6.13;4.03;;;18.70;62.30;;;;;;5063272;28;20060;-74
2021/06/02 08:06:04;;;;;;;6.40;4.78;;;18.90;60.00;;;;;;5058167;28;20484;-74
2021/06/02 08:08:30;;;;;;;6.38;4.45;;;19.10;58.10;;;;;;5078441;28;21119;-74
2021/06/02 08:10:56;;;;;;;6.90;4.30;;;19.40;58.90;;;;;;5062669;28;20060;-74
2021/06/02 08:13:22;;;;;;;6.70;4.65;;;19.60;56.80;;;;;;5060321;28;20043;-74
2021/06/02 08:15:48;;;;;;;6.47;4.63;;;19.70;55.60;;;;;;5062776;28;20406;-74
2021/06/02 08:18:18;;;;;;;5.90;4.20;;;19.80;54.90;;;;;;5059109;28;20029;-74
2021/06/02 08:20:44;;;;;;;6.05;4.10;;;19.90;54.90;;;;;;5059631;28;20063;-74
2021/06/02 08:23:09;;;;;;;6.38;3.63;;;20.10;54.90;;;;;;5090903;28;20119;-75
2021/06/02 08:25:35;;;;;;;6.28;3.30;;;20.30;53.80;;;;;;5055782;28;20165;-74
2021/06/02 08:28:03;;;;;;;7.38;3.28;;;20.40;53.90;;;;;;5095323;28;20055;-74
2021/06/02 08:30:29;;;;;;;4.47;3.30;;;20.60;53.40;;;;;;5056800;28;20385;-73
2021/06/02 08:32:54;;;;;;;5.55;3.40;;;20.70;52.10;;;;;;5061231;28;20043;-74
2021/06/02 08:35:21;;;;;;;5.18;2.83;;;20.90;50.60;;;;;;5063688;28;20495;-74
2021/06/02 08:37:50;;;;;;;5.68;2.60;;;21.00;49.30;;;;;;5064110;28;20506;-74
2021/06/02 08:40:17;;;;;;;4.72;2.67;;;21.20;47.70;;;;;;5053125;28;20037;-74
2021/06/02 08:42:45;;;;;;;6.30;3.17;;;21.30;46.10;;;;;;5063621;28;20047;-75
2021/06/02 08:45:12;;;;;;;5.97;2.78;;;21.40;47.90;;;;;;5058920;28;20063;-74
2021/06/02 08:47:42;;;;;;;5.03;2.70;;;21.60;47.50;;;;;;5060691;28;20041;-73
2021/06/02 08:50:10;;;;;;;7.30;3.00;;;21.60;46.70;;;;;;5058521;28;20065;-75
2021/06/02 08:52:38;;;;;;;4.63;2.53;;;21.70;46.70;;;;;;5061854;28;20109;-73
2021/06/02 08:55:09;;;;;;;10.68;2.80;;;21.80;45.50;;;;;;5059088;28;20105;-74
2021/06/02 08:57:43;;;;;;;3.85;2.45;;;21.90;45.40;;;;;;5061493;28;20036;-74
2021/06/02 09:00:14;;;;;;;4.32;2.40;;;21.90;44.00;;;;;;5055502;28;20119;-73
2021/06/02 09:02:42;;;;;;;4.18;2.40;;;22.00;43.60;;;;;;5076129;28;20113;-75
2021/06/02 09:05:10;;;;;;;3.35;2.15;;;22.00;42.70;;;;;;5061271;28;20044;-75
2021/06/02 09:07:37;;;;;;;6.03;2.35;;;21.90;44.20;;;;;;5058714;28;20044;-74
2021/06/02 09:10:05;;;;;;;5.57;2.80;;;21.90;43.50;;;;;;5071985;28;20037;-74
2021/06/02 09:12:40;;;;;;;7.28;2.58;;;22.10;44.00;;;;;;5060545;28;20047;-74
2021/06/02 09:15:12;;;;;;;3.72;2.58;;;22.20;42.40;;;;;;5053141;28;20162;-75
2021/06/02 09:18:04;;;;;;;4.35;2.28;;;22.30;43.00;;;;;;5044239;28;20044;-74
2021/06/02 09:20:42;;;;;;;5.53;2.65;;;22.30;43.30;;;;;;5092229;28;20036;-75
2021/06/02 09:23:37;;;;;;;4.30;2.60;;;22.30;43.20;;;;;;5059920;28;20089;-74
2021/06/02 09:26:19;;;;;;;5.57;2.72;;;22.40;43.00;;;;;;5053271;28;20049;-75
2021/06/02 09:28:48;;;;;;;4.53;2.28;;;22.50;42.20;;;;;;5057136;28;20136;-74
2021/06/02 09:31:23;;;;;;;6.70;2.60;;;22.60;41.30;;;;;;5060450;28;20050;-76
2021/06/02 09:33:49;;;;;;;6.15;2.38;;;22.80;42.50;;;;;;5059610;28;20064;-75
2021/06/02 09:36:25;;;;;;;3.97;2.33;;;23.00;41.20;;;;;;5061586;28;20652;-74
2021/06/02 09:38:53;;;;;;;9.13;2.50;;;23.00;40.30;;;;;;5062323;28;20178;-74
2021/06/02 09:41:21;;;;;;;5.03;2.38;;;23.10;41.40;;;;;;5062926;28;20925;-75
2021/06/02 09:43:47;;;;;;;5.07;2.58;;;23.20;40.90;;;;;;5066123;28;20052;-75
2021/06/02 09:46:15;;;;;;;4.57;2.30;;;23.40;41.30;;;;;;5058979;28;20033;-75
2021/06/02 09:48:47;;;;;;;5.10;2.67;;;23.50;40.50;;;;;;5061648;28;20103;-76
2021/06/02 09:51:36;;;;;;;5.53;2.85;;;23.50;40.90;;;;;;5050254;28;20124;-74
2021/06/02 09:54:07;;;;;;;4.33;2.80;;;23.80;42.20;;;;;;5051510;28;20538;-75
2021/06/02 09:56:38;;;;;;;3.80;2.40;;;23.80;41.70;;;;;;5059174;28;20072;-75
2021/06/02 09:59:08;;;;;;;5.78;3.17;;;24.00;42.00;;;;;;5053436;28;20043;-75
2021/06/02 10:01:53;;;;;;;4.05;2.60;;;24.10;40.80;;;;;;5052213;28;20051;-75
2021/06/02 10:04:27;;;;;;;4.55;2.40;;;24.20;39.40;;;;;;5066898;28;20691;-75
2021/06/02 10:06:56;;;;;;;5.53;2.97;;;24.10;40.00;;;;;;5051938;28;20037;-75
2021/06/02 10:09:33;;;;;;;4.50;2.53;;;24.10;40.20;;;;;;5052834;28;20045;-79
2021/06/02 10:12:01;;;;;;;6.95;2.80;;;24.10;41.90;;;;;;5084095;28;20056;-79
2021/06/02 10:14:36;;;;;;;5.13;2.72;;;24.30;41.70;;;;;;5054104;28;20045;-76
2021/06/02 10:17:02;;;;;;;4.53;2.92;;;24.40;40.60;;;;;;5053559;28;20663;-74
2021/06/02 10:19:44;;;;;;;4.50;3.15;;;24.40;40.00;;;;;;5053329;28;20040;-74
2021/06/02 10:22:30;;;;;;;9.52;3.33;;;24.30;40.40;;;;;;5059732;28;20059;-75
2021/06/02 10:25:01;;;;;;;5.07;3.22;;;24.30;41.70;;;;;;5066472;28;20041;-75
2021/06/02 10:27:30;;;;;;;5.03;3.35;;;24.40;41.10;;;;;;5053883;28;20057;-75
2021/06/02 10:29:57;;;;;;;;;;;24.40;40.90;;;;;;5055950;28;20051;-75
2021/06/02 10:32:36;;;;;;;4.40;2.90;;;24.50;41.50;;;;;;5037081;28;19928;-75
2021/06/02 10:35:03;;;;;;;5.25;3.55;;;24.70;41.30;;;;;;5064378;28;20189;-75
2021/06/02 10:37:29;;;;;;;4.57;3.38;;;24.90;39.90;;;;;;5051459;28;20044;-74
2021/06/02 10:40:11;;;;;;;5.38;3.22;;;24.90;41.40;;;;;;5048683;28;20047;-75
2021/06/02 10:42:54;;;;;;;4.95;3.50;;;25.00;41.70;;;;;;5050180;28;20067;-76
2021/06/02 10:45:24;;;;;;;6.10;3.80;;;25.10;41.00;;;;;;5048696;28;20036;-75
2021/06/02 10:48:01;;;;;;;7.07;3.65;;;25.10;40.30;;;;;;5051690;28;20140;-75
2021/06/02 10:50:35;;;;;;;4.57;3.53;;;25.10;39.30;;;;;;5089815;27;20761;-75
2021/06/02 10:53:24;;;;;;;6.97;3.88;;;24.90;40.40;;;;;;5058830;28;20036;-75
2021/06/02 10:55:54;;;;;;;5.90;3.10;;;24.90;40.10;;;;;;5051479;28;20059;-75
2021/06/02 10:58:34;;;;;;;7.32;4.22;;;24.70;40.80;;;;;;5083080;28;20876;-75
2021/06/02 11:01:06;;;;;;;6.78;3.53;;;24.60;41.10;;;;;;5066458;28;20044;-75
2021/06/02 11:03:33;;;;;;;4.93;3.60;;;24.50;42.20;;;;;;5063506;28;20056;-75
2021/06/02 11:06:19;;;;;;;6.68;3.53;;;24.70;42.10;;;;;;5046515;28;20102;-74
2021/06/02 11:08:48;;;;;;;4.95;3.67;;;25.10;42.80;;;;;;5089482;28;20036;-76
2021/06/02 11:11:26;;;;;;;5.80;3.87;;;25.20;41.40;;;;;;5056465;28;20041;-76
2021/06/02 11:14:17;;;;;;;7.68;3.80;;;25.40;41.60;;;;;;5056576;28;20166;-75
2021/06/02 11:16:48;;;;;;;7.05;4.22;;;25.50;40.40;;;;;;5089306;28;20094;-76
2021/06/02 11:19:18;;;;;;;6.28;3.47;;;25.30;40.70;;;;;;5053095;28;20046;-74
2021/06/02 11:21:57;;;;;;;5.78;3.45;;;25.20;40.30;;;;;;5038639;28;20515;-74
2021/06/02 11:24:35;;;;;;;9.27;3.92;;;25.10;42.40;;;;;;5087100;28;20043;-75
2021/06/02 11:27:19;;;;;;;6.45;3.90;;;25.10;43.00;;;;;;5063958;28;20039;-75
2021/06/02 11:29:48;;;;;;;6.40;3.83;;;25.30;42.30;;;;;;5049717;28;20107;-75
2021/06/02 11:32:25;;;;;;;5.40;3.42;;;25.40;41.30;;;;;;5056122;28;20036;-75
2021/06/02 11:34:55;;;;;;;5.97;4.03;;;25.60;42.20;;;;;;5051748;28;20037;-76
2021/06/02 11:37:30;;;;;;;6.97;3.63;;;25.70;40.90;;;;;;5054169;28;20037;-75
2021/06/02 11:40:07;;;;;;;7.20;3.85;;;25.70;40.90;;;;;;5052045;28;20115;-75
2021/06/02 11:42:41;;;;;;;6.93;3.95;;;25.50;40.90;;;;;;5055813;28;20045;-76
2021/06/02 11:45:20;;;;;;;5.88;3.90;;;25.40;41.50;;;;;;5090140;28;20033;-76
2021/06/02 11:47:52;;;;;;;6.67;3.60;;;25.50;42.00;;;;;;5097912;28;20047;-75
2021/06/02 11:50:25;;;;;;;5.88;3.72;;;25.50;41.30;;;;;;5055317;28;20029;-75
2021/06/02 11:52:59;;;;;;;6.32;3.47;;;25.50;41.40;;;;;;5050551;28;20049;-76
2021/06/02 11:55:28;;;;;;;5.70;4.00;;;25.60;41.10;;;;;;5091687;27;20043;-76
2021/06/02 11:57:54;;;;;;;7.30;4.00;;;25.60;40.20;;;;;;5055777;28;20083;-76
2021/06/02 12:00:25;;;;;;;8.05;4.20;;;25.50;40.30;;;;;;5059344;28;20359;-76
2021/06/02 12:02:53;;;;;;;6.85;4.43;;;25.40;40.90;;;;;;5040331;28;20040;-76
2021/06/02 12:05:30;;;;;;;6.95;4.35;;;25.40;41.50;;;;;;5090219;28;20036;-75
2021/06/02 12:07:59;;;;;;;8.63;4.68;;;25.50;42.70;;;;;;5051598;28;20029;-75
2021/06/02 12:10:34;;;;;;;6.50;4.32;;;25.70;41.70;;;;;;5056460;28;20049;-75
2021/06/02 12:13:01;;;;;;;6.97;3.78;;;25.80;41.20;;;;;;5061573;28;20055;-75
2021/06/02 12:15:56;;;;;;;6.00;3.28;;;25.90;41.30;;;;;;5050154;28;20040;-74
2021/06/02 12:18:35;;;;;;;6.88;5.10;;;26.00;42.20;;;;;;5052750;28;20514;-75
2021/06/02 12:21:29;;;;;;;8.65;5.00;;;26.10;41.40;;;;;;5058773;28;20040;-76
2021/06/02 12:23:56;;;;;;;8.20;4.70;;;26.10;40.80;;;;;;5059866;28;20056;-75
2021/06/02 12:26:24;;;;;;;5.03;4.38;;;26.10;41.70;;;;;;5061989;28;20127;-74
2021/06/02 12:28:50;;;;;;;7.63;4.85;;;26.30;41.70;;;;;;5060445;28;20075;-75
2021/06/02 12:31:35;;;;;;;10.98;4.75;;;26.30;40.00;;;;;;5046474;28;20037;-75
2021/06/02 12:34:15;;;;;;;7.40;4.78;;;26.40;41.40;;;;;;5070731;28;20065;-76
2021/06/02 12:36:47;;;;;;;6.95;4.80;;;26.40;41.40;;;;;;5053365;28;20545;-75
2021/06/02 12:39:16;;;;;;;8.88;5.18;;;26.40;41.80;;;;;;5062531;28;20039;-75
2021/06/02 12:41:45;;;;;;;7.55;4.90;;;26.50;42.60;;;;;;5052123;28;20037;-75
2021/06/02 12:44:11;;;;;;;6.78;5.07;;;26.50;42.30;;;;;;5050498;28;20375;-75
2021/06/02 12:46:37;;;;;;;9.20;4.72;;;26.70;42.10;;;;;;5047509;28;20496;-75
2021/06/02 12:49:08;;;;;;;9.23;5.22;;;26.70;41.90;;;;;;5055075;28;20045;-80
2021/06/02 12:51:35;;;;;;;8.13;5.72;;;26.70;41.60;;;;;;5043164;28;20564;-81
2021/06/02 12:54:02;;;;;;;8.63;5.55;;;26.60;39.40;;;;;;5045571;28;20045;-80
2021/06/02 12:56:30;;;;;;;9.07;5.28;;;26.40;40.00;;;;;;5051131;28;20037;-75
2021/06/02 12:58:58;;;;;;;7.18;5.32;;;26.30;39.90;;;;;;5089100;28;20663;-75
2021/06/02 13:01:31;;;;;;;7.32;4.57;;;26.30;40.90;;;;;;5063515;28;20068;-75
2021/06/02 13:04:02;;;;;;;6.72;4.47;;;26.50;40.90;;;;;;5055653;28;20041;-75
2021/06/02 13:06:30;;;;;;;9.13;4.78;;;26.70;41.10;;;;;;5052335;28;20686;-74
2021/06/02 13:08:58;;;;;;;7.32;4.65;;;26.80;41.20;;;;;;5061580;28;20048;-76
2021/06/02 13:11:29;;;;;;;5.38;4.00;;;26.90;39.60;;;;;;5036842;28;20041;-75
2021/06/02 13:13:59;;;;;;;7.28;4.78;;;26.80;38.50;;;;;;5057681;28;20068;-76
2021/06/02 13:16:29;;;;;;;6.20;5.00;;;26.80;39.10;;;;;;5068877;28;20131;-76
2021/06/02 13:19:04;;;;;;;9.40;4.30;;;26.90;39.40;;;;;;5056309;28;20417;-76
2021/06/02 13:21:31;;;;;;;6.72;4.38;;;27.00;40.40;;;;;;5061231;28;20682;-75
2021/06/02 13:24:15;;;;;;;6.10;4.55;;;27.10;40.20;;;;;;5066608;28;20082;-76
2021/06/02 13:26:45;;;;;;;6.22;5.00;;;27.30;38.80;;;;;;5045615;28;20166;-76
2021/06/02 13:29:11;;;;;;;7.55;4.68;;;27.40;38.50;;;;;;5061710;28;20043;-75
2021/06/02 13:31:45;;;;;;;5.10;4.10;;;27.30;37.80;;;;;;5057779;28;20036;-75